sensor_id;sensor_type;location;lat;lon;timestamp;P1;durP1;ratioP1;P2;durP2;ratioP2
57323;SDS011;43160;51.008;18.248;2023-07-20T00:00:50;11.80;;;3.70;;
57323;SDS011;43160;51.008;18.248;2023-07-20T00:10:41;13.50;;;4.40;;
57323;SDS011;43160;51.008;18.248;2023-07-20T00:20:27;12.10;;;3.20;;
57323;SDS011;43160;51.008;18.248;2023-07-20T00:30:12;15.90;;;4.40;;
57323;SDS011;43160;51.008;18.248;2023-07-20T00:39:56;9.80;;;3.60;;
57323;SDS011;43160;51.008;18.248;2023-07-20T00:49:39;10.30;;;3.90;;
57323;SDS011;43160;51.008;18.248;2023-07-20T00:59:25;9.70;;;4.00;;
57323;SDS011;43160;51.008;18.248;2023-07-20T01:09:21;10.50;;;4.20;;
57323;SDS011;43160;51.008;18.248;2023-07-20T01:19:14;13.30;;;5.20;;
57323;SDS011;43160;51.008;18.248;2023-07-20T01:39:20;14.40;;;5.40;;
57323;SDS011;43160;51.008;18.248;2023-07-20T01:49:04;13.70;;;4.70;;
57323;SDS011;43160;51.008;18.248;2023-07-20T01:58:46;13.80;;;4.90;;
57323;SDS011;43160;51.008;18.248;2023-07-20T02:08:28;14.30;;;5.80;;
57323;SDS011;43160;51.008;18.248;2023-07-20T02:18:14;13.40;;;4.70;;
57323;SDS011;43160;51.008;18.248;2023-07-20T02:27:57;11.00;;;4.30;;
57323;SDS011;43160;51.008;18.248;2023-07-20T02:37:41;8.20;;;2.50;;
57323;SDS011;43160;51.008;18.248;2023-07-20T02:47:25;11.10;;;3.30;;
57323;SDS011;43160;51.008;18.248;2023-07-20T02:57:08;6.80;;;2.40;;
57323;SDS011;43160;51.008;18.248;2023-07-20T03:06:53;7.60;;;1.80;;
57323;SDS011;43160;51.008;18.248;2023-07-20T03:16:36;11.90;;;4.30;;
57323;SDS011;43160;51.008;18.248;2023-07-20T03:26:21;11.50;;;3.50;;
57323;SDS011;43160;51.008;18.248;2023-07-20T03:36:04;10.90;;;3.70;;
57323;SDS011;43160;51.008;18.248;2023-07-20T03:53:11;10.40;;;3.70;;
57323;SDS011;43160;51.008;18.248;2023-07-20T04:02:54;9.50;;;3.00;;
57323;SDS011;43160;51.008;18.248;2023-07-20T04:12:38;8.90;;;2.40;;
57323;SDS011;43160;51.008;18.248;2023-07-20T04:22:21;11.50;;;4.80;;
57323;SDS011;43160;51.008;18.248;2023-07-20T04:32:05;26.10;;;4.30;;
57323;SDS011;43160;51.008;18.248;2023-07-20T04:41:48;12.10;;;3.90;;
57323;SDS011;43160;51.008;18.248;2023-07-20T04:51:31;10.10;;;3.70;;
57323;SDS011;43160;51.008;18.248;2023-07-20T05:01:16;11.50;;;3.50;;
57323;SDS011;43160;51.008;18.248;2023-07-20T05:10:59;9.20;;;2.90;;
57323;SDS011;43160;51.008;18.248;2023-07-20T05:20:46;11.60;;;4.90;;
57323;SDS011;43160;51.008;18.248;2023-07-20T05:30:30;4.50;;;1.60;;
57323;SDS011;43160;51.008;18.248;2023-07-20T05:40:14;9.50;;;3.20;;
57323;SDS011;43160;51.008;18.248;2023-07-20T05:50:07;10.90;;;4.60;;
57323;SDS011;43160;51.008;18.248;2023-07-20T05:59:50;9.50;;;3.50;;
57323;SDS011;43160;51.008;18.248;2023-07-20T06:09:34;12.50;;;6.40;;
57323;SDS011;43160;51.008;18.248;2023-07-20T06:19:18;14.70;;;5.90;;
57323;SDS011;43160;51.008;18.248;2023-07-20T06:36:24;12.10;;;5.40;;
57323;SDS011;43160;51.008;18.248;2023-07-20T06:46:10;13.00;;;6.20;;
57323;SDS011;43160;51.008;18.248;2023-07-20T06:55:54;7.90;;;4.20;;
57323;SDS011;43160;51.008;18.248;2023-07-20T07:05:43;7.50;;;2.70;;
57323;SDS011;43160;51.008;18.248;2023-07-20T07:15:28;8.50;;;3.30;;
57323;SDS011;43160;51.008;18.248;2023-07-20T07:25:12;9.70;;;4.20;;
57323;SDS011;43160;51.008;18.248;2023-07-20T07:34:56;10.70;;;4.00;;
57323;SDS011;43160;51.008;18.248;2023-07-20T07:44:41;8.40;;;2.80;;
57323;SDS011;43160;51.008;18.248;2023-07-20T07:54:27;9.20;;;3.00;;
57323;SDS011;43160;51.008;18.248;2023-07-20T08:04:11;9.10;;;3.20;;
57323;SDS011;43160;51.008;18.248;2023-07-20T08:13:59;8.90;;;3.00;;
57323;SDS011;43160;51.008;18.248;2023-07-20T08:23:43;22.30;;;2.10;;
57323;SDS011;43160;51.008;18.248;2023-07-20T08:33:28;8.30;;;2.70;;
57323;SDS011;43160;51.008;18.248;2023-07-20T08:43:16;9.40;;;2.90;;
57323;SDS011;43160;51.008;18.248;2023-07-20T08:53:00;7.90;;;2.40;;
57323;SDS011;43160;51.008;18.248;2023-07-20T09:02:45;8.00;;;2.60;;
57323;SDS011;43160;51.008;18.248;2023-07-20T09:12:35;8.00;;;2.40;;
57323;SDS011;43160;51.008;18.248;2023-07-20T09:22:20;4.50;;;1.60;;
57323;SDS011;43160;51.008;18.248;2023-07-20T09:32:19;9.20;;;2.90;;
57323;SDS011;43160;51.008;18.248;2023-07-20T09:42:11;9.10;;;3.50;;
57323;SDS011;43160;51.008;18.248;2023-07-20T09:51:56;12.40;;;3.10;;
57323;SDS011;43160;51.008;18.248;2023-07-20T10:01:42;8.30;;;2.80;;
57323;SDS011;43160;51.008;18.248;2023-07-20T10:09:02;9.50;;;3.10;;
57323;SDS011;43160;51.008;18.248;2023-07-20T10:19:23;14.20;;;2.60;;
57323;SDS011;43160;51.008;18.248;2023-07-20T10:29:30;8.20;;;2.70;;
57323;SDS011;43160;51.008;18.248;2023-07-20T10:39:27;9.00;;;3.20;;
57323;SDS011;43160;51.008;18.248;2023-07-20T10:49:28;9.20;;;2.80;;
57323;SDS011;43160;51.008;18.248;2023-07-20T10:59:20;8.80;;;3.20;;
57323;SDS011;43160;51.008;18.248;2023-07-20T11:09:37;9.60;;;3.30;;
57323;SDS011;43160;51.008;18.248;2023-07-20T11:19:41;14.20;;;3.30;;
57323;SDS011;43160;51.008;18.248;2023-07-20T11:29:30;7.60;;;2.60;;
57323;SDS011;43160;51.008;18.248;2023-07-20T11:39:17;11.00;;;3.00;;
57323;SDS011;43160;51.008;18.248;2023-07-20T11:49:12;5.60;;;2.10;;
57323;SDS011;43160;51.008;18.248;2023-07-20T12:06:27;7.50;;;2.00;;
57323;SDS011;43160;51.008;18.248;2023-07-20T12:16:27;3.70;;;1.70;;
57323;SDS011;43160;51.008;18.248;2023-07-20T12:26:23;5.80;;;1.80;;
57323;SDS011;43160;51.008;18.248;2023-07-20T12:36:08;6.80;;;1.90;;
57323;SDS011;43160;51.008;18.248;2023-07-20T12:45:52;5.10;;;1.70;;
57323;SDS011;43160;51.008;18.248;2023-07-20T12:55:35;6.40;;;2.10;;
57323;SDS011;43160;51.008;18.248;2023-07-20T13:05:19;6.20;;;2.00;;
57323;SDS011;43160;51.008;18.248;2023-07-20T13:15:03;14.90;;;3.50;;
57323;SDS011;43160;51.008;18.248;2023-07-20T13:24:51;9.70;;;3.70;;
57323;SDS011;43160;51.008;18.248;2023-07-20T13:34:36;9.00;;;2.90;;
57323;SDS011;43160;51.008;18.248;2023-07-20T13:44:20;8.10;;;1.80;;
57323;SDS011;43160;51.008;18.248;2023-07-20T13:54:04;5.90;;;2.20;;
57323;SDS011;43160;51.008;18.248;2023-07-20T14:03:52;5.60;;;1.90;;
57323;SDS011;43160;51.008;18.248;2023-07-20T14:13:40;4.00;;;1.50;;
57323;SDS011;43160;51.008;18.248;2023-07-20T14:23:22;8.10;;;2.10;;
57323;SDS011;43160;51.008;18.248;2023-07-20T14:33:06;5.50;;;1.70;;
57323;SDS011;43160;51.008;18.248;2023-07-20T14:42:51;5.00;;;1.90;;
57323;SDS011;43160;51.008;18.248;2023-07-20T14:52:35;4.30;;;1.70;;
57323;SDS011;43160;51.008;18.248;2023-07-20T15:02:18;6.90;;;2.20;;
57323;SDS011;43160;51.008;18.248;2023-07-20T15:12:15;5.70;;;1.60;;
57323;SDS011;43160;51.008;18.248;2023-07-20T15:22:04;5.00;;;1.80;;
57323;SDS011;43160;51.008;18.248;2023-07-20T15:31:49;7.80;;;2.00;;
57323;SDS011;43160;51.008;18.248;2023-07-20T15:41:36;5.30;;;1.90;;
57323;SDS011;43160;51.008;18.248;2023-07-20T15:51:27;5.50;;;1.60;;
57323;SDS011;43160;51.008;18.248;2023-07-20T16:01:10;6.30;;;1.60;;
57323;SDS011;43160;51.008;18.248;2023-07-20T16:10:55;4.60;;;1.50;;
57323;SDS011;43160;51.008;18.248;2023-07-20T16:20:40;1.30;;;1.30;;
57323;SDS011;43160;51.008;18.248;2023-07-20T16:30:24;7.20;;;2.30;;
57323;SDS011;43160;51.008;18.248;2023-07-20T16:40:11;6.30;;;2.10;;
57323;SDS011;43160;51.008;18.248;2023-07-20T16:49:57;6.40;;;2.00;;
57323;SDS011;43160;51.008;18.248;2023-07-20T16:59:42;7.70;;;2.40;;
57323;SDS011;43160;51.008;18.248;2023-07-20T17:09:26;5.80;;;2.00;;
57323;SDS011;43160;51.008;18.248;2023-07-20T17:19:11;6.60;;;1.90;;
57323;SDS011;43160;51.008;18.248;2023-07-20T17:28:55;7.50;;;2.40;;
57323;SDS011;43160;51.008;18.248;2023-07-20T17:38:47;6.80;;;2.00;;
57323;SDS011;43160;51.008;18.248;2023-07-20T17:48:31;8.10;;;2.30;;
57323;SDS011;43160;51.008;18.248;2023-07-20T17:58:16;7.70;;;2.10;;
57323;SDS011;43160;51.008;18.248;2023-07-20T18:08:00;9.70;;;2.90;;
57323;SDS011;43160;51.008;18.248;2023-07-20T18:17:44;9.10;;;3.10;;
57323;SDS011;43160;51.008;18.248;2023-07-20T18:27:31;7.90;;;2.20;;
57323;SDS011;43160;51.008;18.248;2023-07-20T18:37:16;8.90;;;3.20;;
57323;SDS011;43160;51.008;18.248;2023-07-20T18:47:07;7.60;;;1.70;;
57323;SDS011;43160;51.008;18.248;2023-07-20T18:56:52;10.10;;;3.50;;
57323;SDS011;43160;51.008;18.248;2023-07-20T19:06:37;9.50;;;4.00;;
57323;SDS011;43160;51.008;18.248;2023-07-20T19:16:21;10.20;;;4.50;;
57323;SDS011;43160;51.008;18.248;2023-07-20T19:26:08;7.60;;;3.00;;
57323;SDS011;43160;51.008;18.248;2023-07-20T19:35:55;9.60;;;3.30;;
57323;SDS011;43160;51.008;18.248;2023-07-20T19:45:40;9.30;;;3.40;;
57323;SDS011;43160;51.008;18.248;2023-07-20T19:55:24;8.20;;;3.30;;
57323;SDS011;43160;51.008;18.248;2023-07-20T20:05:09;12.30;;;4.30;;
57323;SDS011;43160;51.008;18.248;2023-07-20T20:14:56;10.90;;;4.60;;
57323;SDS011;43160;51.008;18.248;2023-07-20T20:24:40;7.10;;;2.80;;
57323;SDS011;43160;51.008;18.248;2023-07-20T20:34:23;7.80;;;3.00;;
57323;SDS011;43160;51.008;18.248;2023-07-20T20:44:10;14.50;;;5.00;;
57323;SDS011;43160;51.008;18.248;2023-07-20T20:54:06;8.80;;;4.00;;
57323;SDS011;43160;51.008;18.248;2023-07-20T21:03:51;12.80;;;4.80;;
57323;SDS011;43160;51.008;18.248;2023-07-20T21:13:36;11.60;;;6.00;;
57323;SDS011;43160;51.008;18.248;2023-07-20T21:23:20;10.30;;;5.10;;
57323;SDS011;43160;51.008;18.248;2023-07-20T21:33:10;11.00;;;5.10;;
57323;SDS011;43160;51.008;18.248;2023-07-20T21:42:56;9.00;;;3.90;;
57323;SDS011;43160;51.008;18.248;2023-07-20T21:52:44;9.80;;;3.90;;
57323;SDS011;43160;51.008;18.248;2023-07-20T22:02:28;8.40;;;2.80;;
57323;SDS011;43160;51.008;18.248;2023-07-20T22:12:13;11.60;;;5.50;;
57323;SDS011;43160;51.008;18.248;2023-07-20T22:22:02;10.90;;;4.70;;
57323;SDS011;43160;51.008;18.248;2023-07-20T22:31:51;13.50;;;5.60;;
57323;SDS011;43160;51.008;18.248;2023-07-20T22:41:39;10.30;;;4.70;;
57323;SDS011;43160;51.008;18.248;2023-07-20T22:58:43;10.90;;;4.20;;
57323;SDS011;43160;51.008;18.248;2023-07-20T23:08:30;10.00;;;4.60;;
57323;SDS011;43160;51.008;18.248;2023-07-20T23:18:16;10.70;;;4.90;;
57323;SDS011;43160;51.008;18.248;2023-07-20T23:28:00;11.40;;;4.50;;
57323;SDS011;43160;51.008;18.248;2023-07-20T23:37:46;9.80;;;4.30;;
57323;SDS011;43160;51.008;18.248;2023-07-20T23:47:39;9.20;;;3.50;;
57323;SDS011;43160;51.008;18.248;2023-07-20T23:57:26;11.70;;;5.30;;
